Time;durP1;ratioP1;P1;durP2;ratioP2;P2;SDS_P1;SDS_P2;PMS_P1;PMS_P2;Temp;Humidity;BMP_temperature;BMP_pressure;BME280_temperature;BME280_humidity;BME280_pressure;Samples;Min_cycle;Max_cycle;Signal;HPM_P1;HPM_P2
2024/01/11 00:00:43;;;;;;;193.90;180.63;;;-0.10;99.90;;;;;;5032100;28;20033;-79
2024/01/11 00:03:09;;;;;;;99.00;92.27;;;0.00;99.90;;;;;;5032413;28;20392;-79
2024/01/11 00:05:36;;;;;;;116.00;106.97;;;0.00;99.90;;;;;;5047930;28;20040;-80
2024/01/11 00:08:02;;;;;;;72.17;67.07;;;-0.10;99.90;;;;;;5032423;28;20025;-79
2024/01/11 00:10:28;;;;;;;69.90;63.93;;;-0.10;99.90;;;;;;5032345;28;20022;-73
2024/01/11 00:12:54;;;;;;;81.67;75.00;;;-0.10;99.90;;;;;;5032245;28;20029;-71
2024/01/11 00:15:20;;;;;;;96.90;88.63;;;-0.10;99.90;;;;;;5046517;28;20037;-71
2024/01/11 00:17:46;;;;;;;187.67;174.83;;;-0.10;99.90;;;;;;5032527;28;20376;-71
2024/01/11 00:20:12;;;;;;;74.07;68.43;;;0.00;99.90;;;;;;5048717;28;20025;-71
2024/01/11 00:22:38;;;;;;;241.53;225.73;;;0.00;99.90;;;;;;5052459;28;20418;-70
2024/01/11 00:25:05;;;;;;;145.43;135.10;;;0.00;99.90;;;;;;5052006;28;20534;-70
2024/01/11 00:27:31;;;;;;;160.57;149.43;;;0.00;99.90;;;;;;5030995;28;20041;-71
2024/01/11 00:29:57;;;;;;;108.63;100.27;;;0.00;99.90;;;;;;5031647;28;20038;-71
2024/01/11 00:32:23;;;;;;;201.57;188.30;;;0.00;99.90;;;;;;5031180;28;20396;-71
2024/01/11 00:34:49;;;;;;;98.03;90.83;;;0.00;99.90;;;;;;5044268;28;20049;-71
2024/01/11 00:37:16;;;;;;;97.10;91.63;;;0.00;99.90;;;;;;5037828;28;20474;-71
2024/01/11 00:39:43;;;;;;;62.97;57.20;;;0.00;99.90;;;;;;5051907;28;20402;-71
2024/01/11 00:42:09;;;;;;;156.47;145.53;;;-0.10;99.90;;;;;;5040894;28;20040;-71
2024/01/11 00:44:35;;;;;;;167.63;156.33;;;-0.10;99.90;;;;;;5051830;28;20044;-71
2024/01/11 00:47:01;;;;;;;171.17;159.47;;;0.00;99.90;;;;;;5066079;28;20029;-73
2024/01/11 00:49:27;;;;;;;73.07;67.87;;;0.00;99.90;;;;;;5053208;28;20033;-71
2024/01/11 00:51:54;;;;;;;116.23;107.50;;;0.00;99.90;;;;;;5037079;28;20029;-70
2024/01/11 00:54:20;;;;;;;120.70;112.03;;;0.00;99.90;;;;;;5048646;28;20048;-71
2024/01/11 00:56:46;;;;;;;69.67;64.40;;;0.10;99.90;;;;;;5037963;28;20034;-71
2024/01/11 00:59:12;;;;;;;86.10;78.67;;;0.10;99.90;;;;;;5030524;28;20038;-71
2024/01/11 01:01:38;;;;;;;118.07;111.07;;;0.00;99.90;;;;;;5031223;28;20041;-71
2024/01/11 01:04:04;;;;;;;71.40;65.00;;;0.00;99.90;;;;;;5036945;28;20052;-70
2024/01/11 01:06:30;;;;;;;72.57;65.83;;;0.00;99.90;;;;;;5051240;28;20040;-70
2024/01/11 01:08:56;;;;;;;176.60;164.60;;;0.00;99.90;;;;;;5050680;28;20041;-71
2024/01/11 01:11:22;;;;;;;163.10;151.97;;;0.00;99.90;;;;;;5040075;28;20052;-71
2024/01/11 01:13:48;;;;;;;97.47;89.70;;;0.10;99.90;;;;;;5049488;28;20041;-72
2024/01/11 01:16:16;;;;;;;116.73;108.60;;;0.10;99.90;;;;;;5044170;28;20052;-73
2024/01/11 01:18:43;;;;;;;69.90;64.93;;;0.20;99.90;;;;;;5046789;28;20034;-71
2024/01/11 01:21:09;;;;;;;125.20;115.73;;;0.10;99.90;;;;;;5032343;28;20030;-71
2024/01/11 01:23:35;;;;;;;119.20;111.90;;;0.10;99.90;;;;;;5035156;28;20479;-71
2024/01/11 01:26:01;;;;;;;90.50;83.73;;;0.10;99.90;;;;;;5043648;28;20041;-71
2024/01/11 01:28:27;;;;;;;84.20;77.20;;;0.10;99.90;;;;;;5031548;28;20022;-70
2024/01/11 01:30:53;;;;;;;78.27;72.40;;;0.10;99.90;;;;;;5030791;28;20049;-74
2024/01/11 01:33:19;;;;;;;74.77;68.67;;;0.10;99.90;;;;;;5031704;28;20387;-74
2024/01/11 01:35:45;;;;;;;68.40;62.17;;;0.10;99.90;;;;;;5044736;28;20037;-74
2024/01/11 01:38:12;;;;;;;85.03;78.30;;;0.10;99.90;;;;;;5045362;28;20029;-73
2024/01/11 01:40:38;;;;;;;44.70;41.40;;;0.10;99.90;;;;;;5046846;28;20026;-74
2024/01/11 01:43:07;;;;;;;80.77;74.33;;;0.10;99.90;;;;;;5044670;28;20519;-73
2024/01/11 01:45:33;;;;;;;84.03;76.87;;;0.10;99.90;;;;;;5047760;28;20029;-74
2024/01/11 01:47:59;;;;;;;97.97;91.20;;;0.10;99.90;;;;;;5051147;28;20036;-74
2024/01/11 01:50:25;;;;;;;72.87;66.30;;;0.10;99.90;;;;;;5047709;28;20391;-73
2024/01/11 01:52:51;;;;;;;43.67;39.83;;;0.10;99.90;;;;;;5021010;28;20387;-75
2024/01/11 01:55:17;;;;;;;79.73;73.10;;;0.10;99.90;;;;;;5034491;28;20055;-75
2024/01/11 01:57:43;;;;;;;113.50;104.63;;;0.00;99.90;;;;;;5031476;28;20033;-74
2024/01/11 02:00:11;;;;;;;103.17;95.90;;;0.10;99.90;;;;;;5053972;28;20036;-75
2024/01/11 02:02:38;;;;;;;93.03;86.33;;;0.10;99.90;;;;;;5048189;28;20025;-75
2024/01/11 02:05:04;;;;;;;47.63;44.13;;;0.10;99.90;;;;;;5053617;28;20043;-75
2024/01/11 02:07:31;;;;;;;100.70;93.30;;;0.10;99.90;;;;;;5046098;28;20025;-74
2024/01/11 02:09:57;;;;;;;100.33;92.40;;;0.00;99.90;;;;;;5019556;28;20399;-75
2024/01/11 02:12:24;;;;;;;114.93;107.07;;;0.10;99.90;;;;;;5038007;28;20025;-74
2024/01/11 02:14:51;;;;;;;96.23;88.73;;;0.10;99.90;;;;;;5019708;28;20049;-74
2024/01/11 02:17:17;;;;;;;110.80;102.67;;;0.00;99.90;;;;;;5052247;28;20036;-75
2024/01/11 02:19:43;;;;;;;98.97;92.23;;;0.10;99.90;;;;;;5040070;28;20053;-75
2024/01/11 02:22:16;;;;;;;94.00;86.90;;;0.10;99.90;;;;;;5050656;28;20040;-75
2024/01/11 02:24:42;;;;;;;117.97;109.57;;;0.10;99.90;;;;;;5052835;28;20496;-75
2024/01/11 02:27:10;;;;;;;114.30;105.87;;;0.10;99.90;;;;;;5044667;28;20025;-75
2024/01/11 02:29:36;;;;;;;91.57;84.50;;;0.10;99.90;;;;;;5054163;28;20111;-75
2024/01/11 02:32:03;;;;;;;96.33;89.23;;;0.20;99.90;;;;;;5042900;28;20040;-71
2024/01/11 02:34:29;;;;;;;107.97;99.93;;;0.20;99.90;;;;;;5036352;28;20033;-71
2024/01/11 02:36:55;;;;;;;123.00;114.37;;;0.20;99.90;;;;;;5021974;28;20056;-71
2024/01/11 02:39:22;;;;;;;114.27;106.60;;;0.20;99.90;;;;;;5053795;28;20493;-70
2024/01/11 02:41:49;;;;;;;56.17;51.13;;;0.20;99.90;;;;;;5036354;28;20033;-71
2024/01/11 02:44:15;;;;;;;102.77;95.00;;;0.10;99.90;;;;;;5053430;28;20037;-71
2024/01/11 02:46:41;;;;;;;60.57;56.20;;;0.10;99.90;;;;;;5040316;28;20033;-70
2024/01/11 02:49:07;;;;;;;124.20;115.50;;;0.10;99.90;;;;;;5034251;28;20088;-71
2024/01/11 02:51:34;;;;;;;90.50;83.67;;;0.10;99.90;;;;;;5033540;28;20037;-70
2024/01/11 02:54:00;;;;;;;82.27;75.27;;;0.00;99.90;;;;;;5036331;28;20617;-71
2024/01/11 02:56:26;;;;;;;102.50;94.47;;;0.00;99.90;;;;;;5049715;28;20056;-71
2024/01/11 02:58:52;;;;;;;69.47;64.70;;;0.00;99.90;;;;;;5053813;28;20490;-71
2024/01/11 03:01:18;;;;;;;88.37;82.17;;;0.00;99.90;;;;;;5043034;28;20053;-71
2024/01/11 03:03:44;;;;;;;69.53;64.30;;;0.00;99.90;;;;;;5049089;28;20040;-70
2024/01/11 03:06:10;;;;;;;51.03;46.93;;;0.00;99.90;;;;;;5037273;28;20041;-71
2024/01/11 03:08:36;;;;;;;91.93;84.63;;;0.00;99.90;;;;;;5050305;28;20042;-71
2024/01/11 03:11:03;;;;;;;66.67;61.37;;;0.00;99.90;;;;;;5051582;28;20360;-70
2024/01/11 03:13:29;;;;;;;113.53;105.93;;;0.00;99.90;;;;;;5050948;28;20029;-71
2024/01/11 03:15:55;;;;;;;55.27;50.60;;;0.00;99.90;;;;;;5049442;28;20044;-71
2024/01/11 03:18:21;;;;;;;101.10;94.73;;;0.00;99.90;;;;;;5051984;28;20040;-71
2024/01/11 03:20:47;;;;;;;65.57;61.17;;;0.00;99.90;;;;;;5050201;28;20395;-70
2024/01/11 03:23:13;;;;;;;112.73;104.63;;;0.00;99.90;;;;;;5051859;28;20040;-70
2024/01/11 03:25:39;;;;;;;96.07;88.47;;;0.00;99.90;;;;;;5046308;28;20559;-71
2024/01/11 03:28:05;;;;;;;128.47;119.90;;;0.00;99.90;;;;;;5046010;28;20037;-71
2024/01/11 03:30:31;;;;;;;51.67;47.53;;;0.10;99.90;;;;;;5047940;28;20033;-71
2024/01/11 03:32:57;;;;;;;62.83;57.20;;;0.10;99.90;;;;;;5031946;28;20025;-71
2024/01/11 03:35:23;;;;;;;108.73;101.07;;;0.00;99.90;;;;;;5047402;28;20049;-80
2024/01/11 03:37:49;;;;;;;108.20;100.47;;;0.10;99.90;;;;;;5052536;28;20041;-80
2024/01/11 03:40:16;;;;;;;109.73;101.83;;;0.10;99.90;;;;;;5052178;28;20490;-80
2024/01/11 03:42:43;;;;;;;65.80;61.50;;;0.10;99.90;;;;;;5043219;28;20045;-80
2024/01/11 03:45:09;;;;;;;77.00;70.57;;;0.10;99.90;;;;;;5051589;28;20037;-80
2024/01/11 03:47:35;;;;;;;69.97;64.43;;;0.10;99.90;;;;;;5039039;28;20033;-80
2024/01/11 03:50:01;;;;;;;62.53;57.20;;;0.10;99.90;;;;;;5052052;28;20060;-80
2024/01/11 03:52:27;;;;;;;75.87;69.70;;;0.10;99.90;;;;;;5033799;28;20038;-80
2024/01/11 03:54:53;;;;;;;104.93;97.13;;;0.10;99.90;;;;;;5049280;28;20033;-80
2024/01/11 03:57:20;;;;;;;140.53;131.10;;;0.20;99.90;;;;;;5052411;28;20036;-80
2024/01/11 03:59:46;;;;;;;109.00;100.90;;;0.20;99.90;;;;;;5052840;28;20032;-80
2024/01/11 04:02:12;;;;;;;67.73;62.00;;;0.20;99.90;;;;;;5052063;28;20033;-79
2024/01/11 04:04:38;;;;;;;112.83;104.63;;;0.20;99.90;;;;;;5051934;28;20037;-79
2024/01/11 04:07:04;;;;;;;87.77;80.37;;;0.20;99.90;;;;;;5036546;28;20392;-79
2024/01/11 04:09:30;;;;;;;86.70;80.43;;;0.20;99.90;;;;;;5032789;28;20044;-79
2024/01/11 04:11:56;;;;;;;62.30;57.93;;;0.30;99.90;;;;;;5032518;28;20472;-79
2024/01/11 04:14:22;;;;;;;75.30;68.80;;;0.20;99.90;;;;;;5040242;28;20028;-79
2024/01/11 04:16:48;;;;;;;65.00;60.07;;;0.20;99.90;;;;;;5042678;28;20048;-79
2024/01/11 04:19:14;;;;;;;78.00;71.63;;;0.10;99.90;;;;;;5050896;28;20037;-79
2024/01/11 04:21:40;;;;;;;87.33;81.10;;;0.20;99.90;;;;;;5047029;28;20092;-80
2024/01/11 04:24:07;;;;;;;90.47;83.57;;;0.20;99.90;;;;;;5052407;28;20028;-79
2024/01/11 04:26:33;;;;;;;66.37;60.87;;;0.20;99.90;;;;;;5049135;28;20045;-79
2024/01/11 04:28:59;;;;;;;59.73;54.20;;;0.20;99.90;;;;;;5051990;28;20032;-79
2024/01/11 04:31:26;;;;;;;89.77;83.17;;;0.10;99.90;;;;;;5049134;28;20055;-79
2024/01/11 04:33:52;;;;;;;82.97;76.67;;;0.10;99.90;;;;;;5051157;28;20029;-79
2024/01/11 04:36:18;;;;;;;78.90;73.13;;;0.20;99.90;;;;;;5044132;28;20041;-79
2024/01/11 04:38:44;;;;;;;65.87;60.60;;;0.20;99.90;;;;;;5052604;28;20048;-71
2024/01/11 04:41:11;;;;;;;76.20;70.23;;;0.20;99.90;;;;;;5050389;28;20036;-71
2024/01/11 04:43:41;;;;;;;70.33;64.30;;;0.20;99.90;;;;;;5051569;28;20095;-71
2024/01/11 04:46:17;;;;;;;81.63;75.05;;;0.20;99.90;;;;;;5039082;28;20037;-71
2024/01/11 04:48:43;;;;;;;91.97;84.90;;;0.20;99.90;;;;;;5051785;28;20040;-70
2024/01/11 04:51:10;;;;;;;68.70;62.60;;;0.30;99.90;;;;;;5048911;28;20372;-70
2024/01/11 04:53:38;;;;;;;90.20;83.43;;;0.20;99.90;;;;;;5050701;28;20036;-71
2024/01/11 04:56:06;;;;;;;115.30;107.07;;;0.30;99.90;;;;;;5042322;28;20068;-71
2024/01/11 04:58:32;;;;;;;91.33;84.73;;;0.20;99.90;;;;;;5031857;28;20380;-70
2024/01/11 05:00:58;;;;;;;90.07;83.33;;;0.30;99.90;;;;;;5031142;28;20029;-71
2024/01/11 05:03:24;;;;;;;111.30;103.13;;;0.30;99.90;;;;;;5031521;28;20044;-71
2024/01/11 05:05:50;;;;;;;80.90;75.03;;;0.30;99.90;;;;;;5043650;28;20029;-71
2024/01/11 05:08:16;;;;;;;94.53;88.67;;;0.30;99.90;;;;;;5045358;28;20029;-71
2024/01/11 05:10:44;;;;;;;84.27;77.97;;;0.20;99.90;;;;;;5047501;28;20034;-71
2024/01/11 05:13:10;;;;;;;73.30;68.50;;;0.30;99.90;;;;;;5050011;28;20044;-71
2024/01/11 05:15:36;;;;;;;99.50;91.87;;;0.20;99.90;;;;;;5048207;28;20041;-71
2024/01/11 05:18:03;;;;;;;103.03;96.20;;;0.20;99.90;;;;;;5050051;28;20463;-71
2024/01/11 05:20:29;;;;;;;111.53;104.17;;;0.30;99.90;;;;;;5054683;28;20037;-70
2024/01/11 05:22:55;;;;;;;120.67;113.00;;;0.30;99.90;;;;;;5050788;28;20025;-71
2024/01/11 05:25:21;;;;;;;103.83;96.43;;;0.30;99.90;;;;;;5048587;28;20391;-70
2024/01/11 05:27:48;;;;;;;122.43;114.13;;;0.30;99.90;;;;;;5033031;28;20029;-71
2024/01/11 05:30:14;;;;;;;83.43;77.37;;;0.30;99.90;;;;;;5051494;28;20495;-71
2024/01/11 05:32:40;;;;;;;56.90;52.27;;;0.30;99.90;;;;;;5035386;28;20040;-71
2024/01/11 05:35:06;;;;;;;64.40;59.60;;;0.30;99.90;;;;;;5044871;28;20025;-71
2024/01/11 05:37:32;;;;;;;101.20;94.00;;;0.20;99.90;;;;;;5046290;28;20032;-71
2024/01/11 05:39:59;;;;;;;61.13;55.80;;;0.30;99.90;;;;;;5054428;28;20041;-79
2024/01/11 05:42:25;;;;;;;115.23;106.73;;;0.30;99.90;;;;;;5054570;28;20044;-79
2024/01/11 05:44:51;;;;;;;79.47;73.47;;;0.30;99.90;;;;;;5055478;28;20506;-79
2024/01/11 05:47:17;;;;;;;70.23;65.97;;;0.20;99.90;;;;;;5054275;28;20048;-78
2024/01/11 05:49:43;;;;;;;104.33;97.13;;;0.20;99.90;;;;;;5055147;28;20040;-78
2024/01/11 05:52:10;;;;;;;79.73;73.20;;;0.20;99.90;;;;;;5053601;28;20037;-79
2024/01/11 05:54:36;;;;;;;64.90;60.60;;;0.20;99.90;;;;;;5051631;28;20049;-80
2024/01/11 05:57:02;;;;;;;83.23;77.03;;;0.30;99.90;;;;;;5053257;28;20071;-78
2024/01/11 05:59:28;;;;;;;66.80;61.73;;;0.30;99.90;;;;;;5052866;28;20045;-78
2024/01/11 06:01:54;;;;;;;73.50;67.77;;;0.30;99.90;;;;;;5054121;28;20048;-78
2024/01/11 06:04:20;;;;;;;70.93;66.23;;;0.30;99.90;;;;;;5053692;28;20731;-78
2024/01/11 06:06:46;;;;;;;64.53;59.37;;;0.30;99.90;;;;;;5051881;28;20029;-78
2024/01/11 06:09:13;;;;;;;63.33;57.63;;;0.30;99.90;;;;;;5053091;28;20037;-78
2024/01/11 06:11:39;;;;;;;117.53;109.27;;;0.30;99.90;;;;;;5054523;28;20025;-78
2024/01/11 06:14:05;;;;;;;76.70;72.37;;;0.30;99.90;;;;;;5053832;28;20052;-78
2024/01/11 06:16:32;;;;;;;70.33;65.40;;;0.30;99.90;;;;;;5052786;28;20048;-78
2024/01/11 06:18:58;;;;;;;78.97;73.23;;;0.30;99.90;;;;;;5044985;28;20036;-78
2024/01/11 06:21:24;;;;;;;80.13;73.93;;;0.20;99.90;;;;;;5044697;28;20386;-78
2024/01/11 06:23:50;;;;;;;77.60;72.53;;;0.30;99.90;;;;;;5054786;28;20033;-78
2024/01/11 06:26:16;;;;;;;86.70;80.43;;;0.30;99.90;;;;;;5054755;28;20411;-77
2024/01/11 06:28:42;;;;;;;82.30;75.37;;;0.20;99.90;;;;;;5052966;28;20033;-77
2024/01/11 06:31:10;;;;;;;79.00;72.80;;;0.20;99.90;;;;;;5045184;28;20045;-78
2024/01/11 06:33:38;;;;;;;55.00;50.90;;;0.30;99.90;;;;;;5050810;28;20049;-78
2024/01/11 06:36:06;;;;;;;113.77;105.63;;;0.30;99.90;;;;;;5044880;28;20064;-78
2024/01/11 06:38:32;;;;;;;85.50;79.47;;;0.30;99.90;;;;;;5042835;28;20044;-78
2024/01/11 06:40:58;;;;;;;101.93;94.60;;;0.30;99.90;;;;;;5046973;28;20029;-78
2024/01/11 06:43:24;;;;;;;104.97;97.20;;;0.30;99.90;;;;;;5049361;28;20049;-72
2024/01/11 06:45:50;;;;;;;108.77;100.23;;;0.30;99.90;;;;;;5047514;28;20041;-72
2024/01/11 06:48:16;;;;;;;79.90;74.73;;;0.40;99.90;;;;;;5034721;28;20030;-72
2024/01/11 06:50:42;;;;;;;86.23;79.17;;;0.40;99.90;;;;;;5038492;28;20033;-73
2024/01/11 06:53:09;;;;;;;87.47;80.87;;;0.30;99.90;;;;;;5054258;28;20036;-72
2024/01/11 06:55:35;;;;;;;98.93;91.53;;;0.30;99.90;;;;;;5053081;28;20045;-72
2024/01/11 06:58:01;;;;;;;129.23;120.77;;;0.40;99.90;;;;;;5053670;28;20044;-72
2024/01/11 07:00:28;;;;;;;224.30;210.23;;;0.40;99.90;;;;;;5049880;28;20044;-72
2024/01/11 07:02:54;;;;;;;93.83;88.00;;;0.40;99.90;;;;;;5033579;28;20388;-73
2024/01/11 07:05:20;;;;;;;93.87;87.17;;;0.40;99.90;;;;;;5033792;28;20044;-72
2024/01/11 07:07:46;;;;;;;143.67;134.03;;;0.30;99.90;;;;;;5034816;28;20029;-72
2024/01/11 07:10:13;;;;;;;157.03;147.03;;;0.40;99.90;;;;;;5052177;28;20491;-72
2024/01/11 07:12:41;;;;;;;306.40;286.50;;;0.40;99.90;;;;;;5033516;28;20022;-72
2024/01/11 07:15:08;;;;;;;210.23;195.53;;;0.40;99.90;;;;;;5032798;28;20048;-72
2024/01/11 07:17:34;;;;;;;321.73;301.90;;;0.40;99.90;;;;;;5053479;28;20063;-72
2024/01/11 07:20:00;;;;;;;203.40;190.03;;;0.30;99.90;;;;;;5049978;28;20032;-72
2024/01/11 07:22:26;;;;;;;306.90;287.77;;;0.30;99.90;;;;;;5033195;28;20026;-72
2024/01/11 07:24:52;;;;;;;209.70;195.27;;;0.40;99.90;;;;;;5033868;28;20495;-72
2024/01/11 07:27:18;;;;;;;202.70;190.60;;;0.30;99.90;;;;;;5032967;28;20041;-73
2024/01/11 07:29:45;;;;;;;110.00;101.57;;;0.40;99.90;;;;;;5050120;28;20028;-72
2024/01/11 07:32:11;;;;;;;120.70;111.77;;;0.40;99.90;;;;;;5052965;28;20040;-73
2024/01/11 07:34:37;;;;;;;183.97;171.57;;;0.50;99.90;;;;;;5052965;28;20044;-72
2024/01/11 07:37:03;;;;;;;148.33;138.67;;;0.40;99.90;;;;;;5052924;28;20045;-72
2024/01/11 07:39:30;;;;;;;174.83;163.77;;;0.40;99.90;;;;;;5051805;28;20041;-73
2024/01/11 07:41:57;;;;;;;189.00;177.00;;;0.30;99.90;;;;;;5052748;28;20034;-72
2024/01/11 07:44:23;;;;;;;134.83;126.53;;;0.40;99.90;;;;;;5053367;28;20108;-77
2024/01/11 07:46:49;;;;;;;110.23;102.80;;;0.40;99.90;;;;;;5050227;28;20428;-77
2024/01/11 07:49:15;;;;;;;107.13;100.97;;;0.30;99.90;;;;;;5052400;28;20032;-79
2024/01/11 07:51:41;;;;;;;268.03;251.17;;;0.40;99.90;;;;;;5051836;28;20490;-79
2024/01/11 07:54:07;;;;;;;73.00;68.23;;;0.40;99.90;;;;;;5051342;28;20041;-79
2024/01/11 07:56:34;;;;;;;136.03;126.47;;;0.40;99.90;;;;;;5052525;28;20475;-79
2024/01/11 07:59:01;;;;;;;90.97;83.57;;;0.50;99.90;;;;;;5052414;28;20040;-79
2024/01/11 08:01:27;;;;;;;138.77;128.80;;;0.50;99.90;;;;;;5052666;28;20033;-79
2024/01/11 08:03:53;;;;;;;132.50;123.60;;;0.60;99.90;;;;;;5049195;28;20025;-79
2024/01/11 08:06:19;;;;;;;86.83;78.97;;;0.60;99.90;;;;;;5051588;28;20044;-80
2024/01/11 08:08:51;;;;;;;93.27;85.70;;;0.60;99.90;;;;;;5050826;28;20113;-80
2024/01/11 08:11:18;;;;;;;132.30;123.37;;;0.60;99.90;;;;;;5052121;28;20024;-78
2024/01/11 08:13:44;;;;;;;91.20;83.77;;;0.60;99.90;;;;;;5052284;28;20021;-78
2024/01/11 08:16:16;;;;;;;90.53;83.03;;;0.60;99.90;;;;;;5033657;28;20056;-79
2024/01/11 08:18:43;;;;;;;92.53;84.60;;;0.70;99.90;;;;;;5052474;28;20025;-78
2024/01/11 08:21:10;;;;;;;77.50;70.30;;;0.70;99.90;;;;;;5051975;28;20033;-78
2024/01/11 08:23:44;;;;;;;96.33;88.63;;;0.70;99.90;;;;;;5051151;28;20036;-78
2024/01/11 08:26:12;;;;;;;82.20;74.90;;;0.70;99.90;;;;;;5051940;28;20053;-78
2024/01/11 08:28:38;;;;;;;87.37;79.23;;;0.70;99.90;;;;;;5051921;28;20041;-78
2024/01/11 08:31:04;;;;;;;102.73;93.73;;;0.70;99.90;;;;;;5051735;28;20045;-79
2024/01/11 08:33:31;;;;;;;128.17;118.07;;;0.80;99.90;;;;;;5051405;28;20044;-78
2024/01/11 08:35:57;;;;;;;115.00;106.17;;;0.70;99.90;;;;;;5050546;28;20562;-80
2024/01/11 08:38:24;;;;;;;111.57;102.27;;;0.70;99.90;;;;;;5051652;28;20044;-79
2024/01/11 08:40:51;;;;;;;125.20;116.43;;;0.80;99.90;;;;;;5049528;28;20215;-76
2024/01/11 08:43:17;;;;;;;135.93;127.63;;;0.80;99.90;;;;;;5052122;28;20041;-79
2024/01/11 08:45:46;;;;;;;172.87;160.17;;;0.80;99.90;;;;;;5049989;28;20058;-78
2024/01/11 08:48:13;;;;;;;174.83;164.03;;;0.80;99.90;;;;;;5049830;28;20044;-71
2024/01/11 08:50:39;;;;;;;137.03;128.20;;;0.70;99.90;;;;;;5049751;28;20395;-68
2024/01/11 08:53:05;;;;;;;134.80;126.10;;;1.20;99.90;;;;;;5050201;28;20044;-70
2024/01/11 08:55:32;;;;;;;120.70;111.43;;;1.40;99.90;;;;;;5048151;28;20419;-70
2024/01/11 08:57:58;;;;;;;130.50;121.03;;;1.20;99.90;;;;;;5031416;28;20065;-71
2024/01/11 09:00:24;;;;;;;159.93;149.17;;;1.10;99.90;;;;;;5031198;28;20045;-70
2024/01/11 09:02:51;;;;;;;183.23;170.60;;;1.00;99.90;;;;;;5050419;28;20070;-71
2024/01/11 09:05:17;;;;;;;178.87;166.87;;;1.10;99.90;;;;;;5050736;28;20037;-70
2024/01/11 09:07:43;;;;;;;285.50;267.33;;;1.00;99.90;;;;;;5035050;28;20380;-71
2024/01/11 09:10:10;;;;;;;161.07;149.50;;;1.10;99.90;;;;;;5049108;28;20029;-70
2024/01/11 09:12:37;;;;;;;151.40;141.07;;;1.10;99.90;;;;;;5050555;28;20056;-70
2024/01/11 09:15:03;;;;;;;215.77;201.30;;;1.20;99.90;;;;;;5033621;28;20042;-70
2024/01/11 09:17:29;;;;;;;183.70;171.87;;;1.20;99.90;;;;;;5050862;28;20041;-70
2024/01/11 09:19:55;;;;;;;88.07;82.80;;;1.20;99.90;;;;;;5049924;28;20045;-70
2024/01/11 09:22:21;;;;;;;301.63;281.83;;;1.20;99.90;;;;;;5050789;28;20041;-71
2024/01/11 09:24:47;;;;;;;72.30;67.37;;;1.20;99.90;;;;;;5050859;28;20033;-70
2024/01/11 09:27:13;;;;;;;267.03;250.53;;;1.30;99.90;;;;;;5048597;28;20030;-72
2024/01/11 09:29:44;;;;;;;163.13;152.03;;;1.30;99.90;;;;;;5050760;28;20468;-70
2024/01/11 09:32:10;;;;;;;360.83;337.00;;;1.40;99.90;;;;;;5046277;28;20396;-70
2024/01/11 09:34:36;;;;;;;407.73;381.03;;;1.50;99.90;;;;;;5050976;28;20280;-72
2024/01/11 09:37:03;;;;;;;192.47;180.03;;;1.50;99.90;;;;;;5050137;28;20055;-70
2024/01/11 09:39:29;;;;;;;119.83;112.27;;;1.50;99.90;;;;;;5050734;28;20391;-70
2024/01/11 09:42:05;;;;;;;115.23;106.90;;;1.50;99.90;;;;;;5039071;28;20028;-70
2024/01/11 09:44:31;;;;;;;55.23;50.97;;;1.60;99.90;;;;;;5049383;28;20052;-71
2024/01/11 09:46:57;;;;;;;54.53;50.20;;;1.60;99.90;;;;;;5048553;28;20037;-70
2024/01/11 09:49:23;;;;;;;72.47;67.27;;;1.60;99.90;;;;;;5049129;28;20028;-71
2024/01/11 09:51:49;;;;;;;126.17;117.13;;;1.70;99.90;;;;;;5049815;28;20032;-70
2024/01/11 09:54:15;;;;;;;107.00;99.20;;;1.70;99.90;;;;;;5049244;28;20504;-71
2024/01/11 09:56:42;;;;;;;93.23;86.13;;;1.90;99.90;;;;;;5032579;28;20059;-71
2024/01/11 09:59:09;;;;;;;61.30;56.80;;;2.00;99.90;;;;;;5034036;28;20028;-71
2024/01/11 10:01:35;;;;;;;74.37;69.00;;;2.00;99.90;;;;;;5049755;28;20053;-72
2024/01/11 10:04:02;;;;;;;55.60;51.20;;;2.00;99.90;;;;;;5050493;28;20036;-71
2024/01/11 10:06:28;;;;;;;55.00;51.40;;;2.00;99.90;;;;;;5044513;28;20045;-72
2024/01/11 10:08:54;;;;;;;56.83;53.03;;;2.00;99.90;;;;;;5030853;28;20029;-72
2024/01/11 10:11:20;;;;;;;58.00;54.33;;;2.10;99.90;;;;;;5049610;28;20036;-72
2024/01/11 10:13:47;;;;;;;65.37;59.53;;;2.20;99.90;;;;;;5051467;28;20029;-71
2024/01/11 10:16:13;;;;;;;61.40;56.57;;;2.20;99.90;;;;;;5053324;28;20475;-72
2024/01/11 10:18:39;;;;;;;53.77;49.60;;;2.20;99.90;;;;;;5054002;28;20053;-72
2024/01/11 10:21:05;;;;;;;69.83;64.57;;;2.30;99.90;;;;;;5047275;28;20385;-74
2024/01/11 10:23:35;;;;;;;68.47;63.20;;;2.30;99.90;;;;;;5053730;28;20036;-76
2024/01/11 10:26:02;;;;;;;67.57;62.37;;;2.30;99.90;;;;;;5048860;28;20032;-74
2024/01/11 10:28:28;;;;;;;41.57;37.97;;;2.20;99.90;;;;;;5052056;28;20041;-76
2024/01/11 10:30:55;;;;;;;45.50;41.27;;;2.20;99.90;;;;;;5047976;28;20041;-74
2024/01/11 10:33:22;;;;;;;75.43;69.37;;;2.20;99.90;;;;;;5052612;28;20045;-74
2024/01/11 10:35:51;;;;;;;50.73;46.77;;;2.20;99.90;;;;;;5053502;28;20025;-75
2024/01/11 10:38:17;;;;;;;73.87;68.00;;;2.30;99.90;;;;;;5053430;28;20699;-77
2024/01/11 10:40:44;;;;;;;70.73;64.73;;;2.30;99.90;;;;;;5047036;28;20045;-77
2024/01/11 10:43:11;;;;;;;77.93;71.57;;;2.50;99.90;;;;;;5052183;28;20060;-76
2024/01/11 10:45:41;;;;;;;91.80;85.20;;;2.50;99.90;;;;;;5049203;28;20037;-76
2024/01/11 10:48:14;;;;;;;101.10;94.20;;;2.60;99.90;;;;;;5052903;28;20020;-77
2024/01/11 10:50:49;;;;;;;73.60;67.23;;;2.60;99.90;;;;;;5051510;28;20190;-76
2024/01/11 10:53:34;;;;;;;52.57;48.50;;;2.70;99.90;;;;;;5050331;28;20514;-74
2024/01/11 10:56:00;;;;;;;72.30;67.33;;;2.80;99.90;;;;;;5053382;28;20031;-76
2024/01/11 10:58:26;;;;;;;76.03;70.87;;;2.80;99.90;;;;;;5036174;28;20482;-76
2024/01/11 11:00:54;;;;;;;72.53;67.27;;;2.80;99.90;;;;;;5052621;28;20033;-76
2024/01/11 11:03:20;;;;;;;73.10;68.33;;;2.90;99.90;;;;;;5051754;28;20040;-77
2024/01/11 11:05:48;;;;;;;91.67;85.80;;;2.90;99.90;;;;;;5034862;28;20041;-77
2024/01/11 11:08:14;;;;;;;84.00;78.70;;;3.00;99.90;;;;;;5051728;28;20041;-76
2024/01/11 11:10:41;;;;;;;52.47;48.37;;;2.90;99.90;;;;;;5034808;28;20028;-76
2024/01/11 11:13:08;;;;;;;110.63;103.10;;;3.10;99.90;;;;;;5053092;28;20048;-74
2024/01/11 11:15:34;;;;;;;87.03;80.47;;;3.20;99.90;;;;;;5034921;28;20033;-76
2024/01/11 11:18:01;;;;;;;78.23;72.77;;;3.20;99.90;;;;;;5035568;28;20033;-76
2024/01/11 11:20:27;;;;;;;69.60;64.63;;;3.30;99.90;;;;;;5034130;28;20473;-76
2024/01/11 11:23:04;;;;;;;61.07;56.67;;;3.30;99.90;;;;;;5034900;28;20041;-77
2024/01/11 11:25:30;;;;;;;148.13;138.43;;;3.30;99.90;;;;;;5052207;28;20181;-71
2024/01/11 11:27:58;;;;;;;170.53;159.67;;;3.40;99.90;;;;;;5048520;28;20031;-71
2024/01/11 11:30:24;;;;;;;119.90;111.10;;;3.50;99.90;;;;;;5052397;28;20487;-71
2024/01/11 11:32:50;;;;;;;86.10;80.10;;;3.50;99.90;;;;;;5052862;28;20033;-72
2024/01/11 11:35:16;;;;;;;78.83;72.40;;;3.60;99.90;;;;;;5052203;28;20037;-71
2024/01/11 11:37:42;;;;;;;87.70;82.30;;;3.70;99.90;;;;;;5049901;28;20051;-71
2024/01/11 11:40:10;;;;;;;99.47;91.93;;;3.70;99.90;;;;;;5050654;28;20052;-71
2024/01/11 11:42:36;;;;;;;119.70;112.30;;;3.80;99.90;;;;;;5041418;28;20052;-71
2024/01/11 11:45:03;;;;;;;94.30;87.80;;;3.90;99.90;;;;;;5047913;28;20060;-70
2024/01/11 11:47:37;;;;;;;198.17;186.40;;;4.00;99.90;;;;;;5049834;28;20033;-71
2024/01/11 11:50:07;;;;;;;193.30;182.13;;;4.10;99.90;;;;;;5051492;28;20112;-70
2024/01/11 11:52:36;;;;;;;133.10;124.40;;;4.00;99.90;;;;;;5050856;28;20049;-71
2024/01/11 11:55:02;;;;;;;107.30;99.73;;;4.10;99.90;;;;;;5051589;28;20044;-71
2024/01/11 11:57:28;;;;;;;181.87;170.67;;;4.20;99.90;;;;;;5050628;28;20052;-71
2024/01/11 12:00:05;;;;;;;60.53;56.80;;;4.40;99.90;;;;;;5050890;28;20025;-72
2024/01/11 12:02:31;;;;;;;119.67;111.93;;;4.40;99.90;;;;;;5050330;28;20146;-71
2024/01/11 12:04:57;;;;;;;87.33;80.90;;;4.40;99.90;;;;;;5051914;28;20033;-71
2024/01/11 12:07:24;;;;;;;87.10;81.80;;;4.40;99.90;;;;;;5050483;28;20328;-71
2024/01/11 12:09:51;;;;;;;245.97;231.40;;;4.40;99.90;;;;;;5048991;28;20033;-71
2024/01/11 12:12:21;;;;;;;156.73;146.57;;;4.50;99.90;;;;;;5030771;28;20029;-71
2024/01/11 12:14:47;;;;;;;90.90;84.20;;;4.60;99.90;;;;;;5049736;28;20048;-71
2024/01/11 12:17:13;;;;;;;105.20;98.30;;;4.70;99.90;;;;;;5041341;28;20045;-71
2024/01/11 12:19:40;;;;;;;103.13;96.23;;;4.80;99.90;;;;;;5050601;28;20033;-71
2024/01/11 12:22:06;;;;;;;86.97;80.43;;;4.70;99.90;;;;;;5050843;28;20043;-71
2024/01/11 12:24:33;;;;;;;68.50;63.30;;;4.70;99.90;;;;;;5050839;28;20037;-71